createdAt,value
2023-05-17T00:00:07.020Z,10.30
2023-05-17T00:04:10.088Z,10.30
2023-05-17T00:08:13.467Z,10.20
2023-05-17T00:12:16.372Z,10.20
2023-05-17T00:16:20.674Z,10.20
2023-05-17T00:20:23.514Z,10.20
2023-05-17T00:24:27.218Z,10.20
2023-05-17T00:28:30.011Z,10.20
2023-05-17T00:32:34.764Z,10.10
2023-05-17T00:36:37.681Z,10.10
2023-05-17T00:40:40.498Z,10.10
2023-05-17T00:44:43.302Z,10.10
2023-05-17T00:48:47.608Z,10.00
2023-05-17T00:52:51.677Z,10.00
2023-05-17T00:56:57.025Z,10.10
2023-05-17T01:01:01.382Z,10.10
2023-05-17T01:05:06.608Z,10.10
2023-05-17T01:09:11.620Z,10.10
2023-05-17T01:13:23.927Z,10.00
2023-05-17T01:17:36.329Z,10.00
2023-05-17T01:21:58.700Z,10.00
2023-05-17T01:26:07.778Z,9.90
2023-05-17T01:30:18.108Z,10.00
2023-05-17T01:34:26.591Z,9.90
2023-05-17T01:38:29.491Z,9.90
2023-05-17T01:42:33.768Z,9.90
2023-05-17T01:46:41.605Z,9.80
2023-05-17T01:50:48.348Z,9.80
2023-05-17T01:55:00.474Z,9.80
2023-05-17T01:59:07.663Z,9.80
2023-05-17T02:03:18.489Z,9.80
2023-05-17T02:07:21.402Z,9.70
2023-05-17T02:11:24.276Z,9.70
2023-05-17T02:15:29.038Z,9.70
2023-05-17T02:19:33.684Z,9.60
2023-05-17T02:23:36.725Z,9.60
2023-05-17T02:27:39.661Z,9.60
2023-05-17T02:31:44.452Z,9.50
2023-05-17T02:35:50.448Z,9.40
2023-05-17T02:39:55.655Z,9.40
2023-05-17T02:43:58.504Z,9.40
2023-05-17T02:48:02.864Z,9.40
2023-05-17T02:52:07.745Z,9.40
2023-05-17T02:56:10.525Z,9.40
2023-05-17T03:00:14.177Z,9.30
2023-05-17T03:04:17.432Z,9.30
2023-05-17T03:08:21.634Z,9.30
2023-05-17T03:12:24.552Z,9.30
2023-05-17T03:16:28.769Z,9.30
2023-05-17T03:20:32.963Z,9.20
2023-05-17T03:24:37.211Z,9.20
2023-05-17T03:28:40.120Z,9.10
2023-05-17T03:32:43.527Z,9.10
2023-05-17T03:36:46.936Z,9.10
2023-05-17T03:40:53.281Z,9.10
2023-05-17T03:44:56.657Z,9.10
2023-05-17T03:49:00.550Z,9.10
2023-05-17T03:53:03.534Z,9.10
2023-05-17T03:57:08.715Z,9.10
2023-05-17T04:01:12.016Z,9.20
2023-05-17T04:05:15.123Z,9.20
2023-05-17T04:09:21.005Z,9.20
2023-05-17T04:13:25.915Z,9.30
2023-05-17T04:17:28.849Z,9.30
2023-05-17T04:21:32.214Z,9.30
2023-05-17T04:25:35.196Z,9.30
2023-05-17T04:29:40.887Z,9.30
2023-05-17T04:33:44.240Z,9.30
2023-05-17T04:37:47.150Z,9.40
2023-05-17T04:41:57.961Z,9.50
2023-05-17T04:46:02.553Z,9.50
2023-05-17T04:50:06.604Z,9.40
2023-05-17T04:54:11.665Z,9.50
2023-05-17T04:58:15.541Z,9.50
2023-05-17T05:02:21.824Z,9.60
2023-05-17T05:06:24.913Z,9.60
2023-05-17T05:10:29.270Z,9.60
2023-05-17T05:14:33.056Z,9.60
2023-05-17T05:18:38.354Z,9.70
2023-05-17T05:22:41.957Z,9.80
2023-05-17T05:26:45.887Z,9.80
2023-05-17T05:30:50.361Z,9.90
2023-05-17T05:34:54.596Z,9.90
2023-05-17T05:38:57.421Z,10.00
2023-05-17T05:43:00.266Z,10.20
2023-05-17T05:47:03.201Z,10.00
2023-05-17T05:51:07.709Z,10.40
2023-05-17T05:55:12.457Z,10.60
2023-05-17T05:59:16.096Z,10.80
2023-05-17T06:03:19.060Z,11.60
2023-05-17T06:07:23.244Z,12.60
2023-05-17T06:11:27.151Z,13.60
2023-05-17T06:15:30.062Z,13.70
2023-05-17T06:19:33.102Z,13.40
2023-05-17T06:23:37.409Z,13.10
2023-05-17T06:27:40.339Z,12.80
2023-05-17T06:31:43.245Z,13.00
2023-05-17T06:35:56.353Z,13.10
2023-05-17T06:40:14.923Z,13.20
2023-05-17T06:44:18.690Z,13.70
2023-05-17T06:48:21.725Z,13.90
2023-05-17T06:52:24.773Z,13.90
2023-05-17T06:56:29.024Z,13.70
2023-05-17T07:00:32.609Z,13.80
2023-05-17T07:04:35.920Z,14.00
2023-05-17T07:08:38.767Z,14.10
2023-05-17T07:12:43.024Z,14.50
2023-05-17T07:16:45.922Z,14.60
2023-05-17T07:20:48.801Z,14.90
2023-05-17T07:24:51.761Z,15.20
2023-05-17T07:28:55.953Z,15.30
2023-05-17T07:32:58.861Z,15.30
2023-05-17T07:37:01.749Z,15.60
2023-05-17T07:41:04.669Z,15.80
2023-05-17T07:45:10.665Z,15.60
2023-05-17T07:49:13.741Z,15.90
2023-05-17T07:53:16.728Z,16.30
2023-05-17T07:57:19.658Z,16.40
2023-05-17T08:01:24.113Z,16.60
2023-05-17T08:05:27.593Z,16.90
2023-05-17T08:09:30.797Z,17.30
2023-05-17T08:13:33.704Z,16.70
2023-05-17T08:17:38.000Z,16.90
2023-05-17T08:21:40.959Z,17.00
2023-05-17T08:25:43.786Z,17.20
2023-05-17T08:29:48.778Z,16.40
2023-05-17T08:33:52.945Z,17.10
2023-05-17T08:37:55.887Z,17.60
2023-05-17T08:41:59.676Z,17.40
2023-05-17T08:46:04.170Z,16.70
2023-05-17T08:50:09.014Z,16.90
2023-05-17T08:54:12.007Z,17.20
2023-05-17T08:58:17.460Z,17.30
2023-05-17T09:02:20.434Z,17.60
2023-05-17T09:06:25.425Z,17.50
2023-05-17T09:10:30.695Z,17.50
2023-05-17T09:14:35.284Z,17.20
2023-05-17T09:18:38.258Z,17.80
2023-05-17T09:22:42.613Z,18.20
2023-05-17T09:26:46.630Z,17.70
2023-05-17T09:30:50.628Z,17.60
2023-05-17T09:34:53.768Z,18.10
2023-05-17T09:39:00.304Z,18.40
2023-05-17T09:43:03.234Z,18.40
2023-05-17T09:47:06.728Z,18.40
2023-05-17T09:51:09.561Z,18.90
2023-05-17T09:55:15.437Z,19.10
2023-05-17T09:59:18.298Z,18.70
2023-05-17T10:03:21.483Z,19.00
2023-05-17T10:07:26.332Z,19.20
2023-05-17T10:11:34.339Z,19.40
2023-05-17T10:15:38.539Z,19.60
2023-05-17T10:19:41.983Z,19.70
2023-05-17T10:23:46.712Z,19.50
2023-05-17T10:27:52.138Z,19.20
2023-05-17T10:31:56.019Z,19.40
2023-05-17T10:36:00.288Z,19.10
2023-05-17T10:40:04.038Z,19.00
2023-05-17T10:44:09.324Z,19.20
2023-05-17T10:48:12.480Z,19.00
2023-05-17T10:52:17.610Z,18.60
2023-05-17T10:56:23.412Z,18.30
2023-05-17T11:00:31.925Z,18.40
2023-05-17T11:04:37.349Z,18.70
2023-05-17T11:08:47.385Z,18.90
2023-05-17T11:12:55.370Z,18.80
2023-05-17T11:16:59.780Z,18.90
2023-05-17T11:21:09.351Z,19.60
2023-05-17T11:25:14.229Z,19.90
2023-05-17T11:29:18.801Z,20.00
2023-05-17T11:33:39.033Z,19.50
2023-05-17T11:37:45.106Z,19.30
2023-05-17T11:41:51.505Z,19.10
2023-05-17T11:45:57.373Z,19.10
2023-05-17T11:50:04.916Z,19.90
2023-05-17T11:54:08.364Z,20.70
2023-05-17T11:58:12.464Z,20.20
2023-05-17T12:02:28.701Z,19.60
2023-05-17T12:06:35.093Z,19.70
2023-05-17T12:10:38.006Z,22.20
2023-05-17T12:14:44.318Z,22.00
2023-05-17T12:18:50.643Z,20.90
2023-05-17T12:22:55.756Z,20.00
2023-05-17T12:26:58.632Z,22.70
2023-05-17T12:31:03.343Z,24.50
2023-05-17T12:35:07.001Z,21.70
2023-05-17T12:39:12.975Z,20.20
2023-05-17T12:43:15.627Z,19.80
2023-05-17T12:47:18.422Z,20.40
2023-05-17T12:51:22.695Z,20.50
2023-05-17T12:55:27.299Z,21.60
2023-05-17T12:59:30.077Z,20.60
2023-05-17T13:03:33.043Z,19.70
2023-05-17T13:07:35.960Z,19.20
2023-05-17T13:11:41.681Z,20.90
2023-05-17T13:15:47.380Z,21.20
2023-05-17T13:19:50.362Z,21.90
2023-05-17T13:23:53.237Z,22.40
2023-05-17T13:27:57.372Z,22.30
2023-05-17T13:32:00.143Z,21.60
2023-05-17T13:36:03.270Z,21.40
2023-05-17T13:40:08.258Z,20.50
2023-05-17T13:44:12.433Z,19.80
2023-05-17T13:48:15.389Z,19.30
2023-05-17T13:52:18.656Z,19.00
2023-05-17T13:56:22.217Z,18.90
2023-05-17T14:00:26.934Z,18.90
2023-05-17T14:04:29.844Z,19.00
2023-05-17T14:08:33.432Z,19.10
2023-05-17T14:12:36.672Z,18.80
2023-05-17T14:16:41.074Z,18.50
2023-05-17T14:20:43.911Z,18.40
2023-05-17T14:24:46.814Z,18.40
2023-05-17T14:28:49.731Z,18.30
2023-05-17T14:32:53.942Z,18.10
2023-05-17T14:36:56.927Z,17.90
2023-05-17T14:41:00.680Z,18.00
2023-05-17T14:45:03.577Z,18.10
2023-05-17T14:49:08.025Z,17.90
2023-05-17T14:53:10.959Z,17.70
2023-05-17T14:57:13.978Z,17.60
2023-05-17T15:01:17.586Z,17.50
2023-05-17T15:05:22.120Z,17.50
2023-05-17T15:09:25.105Z,17.50
2023-05-17T15:13:28.017Z,17.40
2023-05-17T15:17:30.955Z,17.20
2023-05-17T15:21:35.237Z,17.50
2023-05-17T15:25:38.105Z,17.50
2023-05-17T15:29:42.199Z,17.60
2023-05-17T15:33:45.115Z,17.80
2023-05-17T15:37:49.412Z,17.50
2023-05-17T15:41:52.330Z,17.30
2023-05-17T15:45:55.155Z,17.20
2023-05-17T15:49:58.928Z,17.10
2023-05-17T15:54:03.156Z,16.80
2023-05-17T15:58:08.211Z,16.60
2023-05-17T16:02:11.073Z,16.30
2023-05-17T16:06:14.504Z,16.10
2023-05-17T16:10:19.241Z,15.90
2023-05-17T16:14:22.105Z,15.90
2023-05-17T16:18:25.185Z,15.60
2023-05-17T16:22:28.851Z,15.60
2023-05-17T16:26:33.779Z,15.50
2023-05-17T16:30:37.371Z,15.50
2023-05-17T16:34:40.290Z,15.50
2023-05-17T16:38:43.147Z,15.40
2023-05-17T16:42:48.202Z,15.40
2023-05-17T16:46:51.581Z,15.40
2023-05-17T16:50:55.109Z,15.20
2023-05-17T16:55:03.264Z,15.20
2023-05-17T16:59:07.681Z,15.20
2023-05-17T17:03:10.641Z,15.10
2023-05-17T17:07:13.597Z,15.10
2023-05-17T17:11:21.664Z,15.00
2023-05-17T17:15:26.000Z,15.10
2023-05-17T17:19:28.854Z,15.00
2023-05-17T17:23:31.735Z,14.90
2023-05-17T17:27:34.866Z,14.80
2023-05-17T17:31:39.138Z,14.70
2023-05-17T17:35:42.004Z,14.70
2023-05-17T17:39:44.876Z,14.40
2023-05-17T17:43:49.312Z,14.20
2023-05-17T17:47:53.713Z,14.20
2023-05-17T17:51:57.999Z,14.00
2023-05-17T17:56:00.884Z,13.80
2023-05-17T18:00:04.251Z,13.80
2023-05-17T18:04:09.502Z,13.70
2023-05-17T18:08:12.417Z,13.50
2023-05-17T18:12:15.329Z,13.40
2023-05-17T18:16:18.273Z,13.40
2023-05-17T18:20:23.158Z,13.30
2023-05-17T18:24:26.053Z,13.20
2023-05-17T18:28:41.142Z,13.30
2023-05-17T18:32:45.186Z,13.20
2023-05-17T18:36:49.560Z,13.20
2023-05-17T18:40:52.396Z,13.20
2023-05-17T18:44:55.260Z,13.10
2023-05-17T18:48:58.221Z,13.10
2023-05-17T18:53:02.433Z,13.00
2023-05-17T18:57:05.678Z,12.90
2023-05-17T19:01:09.699Z,13.00
2023-05-17T19:05:15.736Z,13.00
2023-05-17T19:09:19.914Z,12.90
2023-05-17T19:13:22.731Z,12.90
2023-05-17T19:17:25.601Z,12.80
2023-05-17T19:21:28.544Z,12.90
2023-05-17T19:25:32.768Z,12.80
2023-05-17T19:29:35.621Z,12.80
2023-05-17T19:33:38.605Z,12.70
2023-05-17T19:37:41.461Z,12.70
2023-05-17T19:41:45.652Z,12.70
2023-05-17T19:45:48.545Z,12.70
2023-05-17T19:49:51.401Z,12.70
2023-05-17T19:53:54.537Z,12.70
2023-05-17T19:57:59.000Z,12.60
2023-05-17T20:02:01.863Z,12.60
2023-05-17T20:06:05.040Z,12.60
2023-05-17T20:10:08.293Z,12.60
2023-05-17T20:14:12.604Z,12.60
2023-05-17T20:18:16.541Z,12.50
2023-05-17T20:22:19.536Z,12.50
2023-05-17T20:26:25.770Z,12.50
2023-05-17T20:30:30.224Z,12.50
2023-05-17T20:34:33.552Z,12.40
2023-05-17T20:38:36.340Z,12.50
2023-05-17T20:42:40.329Z,12.40
2023-05-17T20:46:44.494Z,12.40
2023-05-17T20:50:48.983Z,12.30
2023-05-17T20:54:52.028Z,12.30
2023-05-17T20:58:54.906Z,12.30
2023-05-17T21:02:59.252Z,12.20
2023-05-17T21:07:02.196Z,12.10
2023-05-17T21:11:05.012Z,12.10
2023-05-17T21:15:16.908Z,12.00
2023-05-17T21:19:21.672Z,12.00
2023-05-17T21:23:24.579Z,11.90
2023-05-17T21:27:27.477Z,11.90
2023-05-17T21:31:31.794Z,11.80
2023-05-17T21:35:36.169Z,11.80
2023-05-17T21:39:39.190Z,11.70
2023-05-17T21:43:42.018Z,11.60
2023-05-17T21:47:44.921Z,11.60
2023-05-17T21:51:49.101Z,11.50
2023-05-17T21:59:59.579Z,11.50
2023-05-17T22:04:02.538Z,11.50
2023-05-17T22:08:07.079Z,11.40
2023-05-17T22:12:12.162Z,11.40
2023-05-17T22:16:15.063Z,11.40
2023-05-17T22:20:19.529Z,11.30
2023-05-17T22:24:23.728Z,11.30
2023-05-17T22:28:26.989Z,11.20
2023-05-17T22:32:29.797Z,11.20
2023-05-17T22:36:34.298Z,11.20
2023-05-17T22:40:38.502Z,11.10
2023-05-17T22:44:41.375Z,11.10
2023-05-17T22:48:44.215Z,11.10
2023-05-17T22:52:47.261Z,11.10
2023-05-17T22:56:51.476Z,11.00
2023-05-17T23:00:54.383Z,11.00
2023-05-17T23:04:57.543Z,11.10
2023-05-17T23:09:02.527Z,11.00
2023-05-17T23:13:07.056Z,11.00
2023-05-17T23:17:09.902Z,11.00
2023-05-17T23:21:12.912Z,11.00
2023-05-17T23:25:16.566Z,11.00
2023-05-17T23:29:20.735Z,10.90
2023-05-17T23:33:23.662Z,10.80
2023-05-17T23:37:26.469Z,10.70
2023-05-17T23:41:29.516Z,10.60
2023-05-17T23:45:33.787Z,10.60
2023-05-17T23:49:36.750Z,10.50
2023-05-17T23:53:39.621Z,10.40
2023-05-17T23:57:42.478Z,10.30
